Time;durP1;ratioP1;P1;durP2;ratioP2;P2;SDS_P1;SDS_P2;PMS_P1;PMS_P2;Temp;Humidity;BMP_temperature;BMP_pressure;BME280_temperature;BME280_humidity;BME280_pressure;Samples;Min_cycle;Max_cycle;Signal;HPM_P1;HPM_P2
2023/01/11 00:00:06;;;;;;;4.30;0.90;;;5.60;80.80;;;;;;4101242;28;20416;-88
2023/01/11 00:02:13;;;;;;;6.93;1.30;;;5.60;80.90;;;;;;4084569;28;20074;-88
2023/01/11 00:04:29;;;;;;;6.60;1.27;;;5.60;80.90;;;;;;4060738;29;20008;-87
2023/01/11 00:06:35;;;;;;;4.28;1.08;;;5.70;81.00;;;;;;4078340;29;20035;-88
2023/01/11 00:08:55;;;;;;;5.20;1.08;;;5.60;80.90;;;;;;4072374;29;20119;-87
2023/01/11 00:11:01;;;;;;;5.53;1.20;;;5.60;81.00;;;;;;4074397;29;20056;-87
2023/01/11 00:13:05;;;;;;;1.90;0.80;;;5.60;81.00;;;;;;4057451;29;20567;-89
2023/01/11 00:15:07;;;;;;;4.00;0.75;;;5.70;81.20;;;;;;4090336;28;20035;-88
2023/01/11 00:17:13;;;;;;;2.78;0.95;;;5.60;81.10;;;;;;4093016;28;20031;-89
2023/01/11 00:19:16;;;;;;;1.45;0.80;;;5.60;81.20;;;;;;4074141;29;20039;-89
2023/01/11 00:21:21;;;;;;;5.45;1.35;;;5.70;82.10;;;;;;4060350;29;20043;-89
2023/01/11 00:23:28;;;;;;;2.65;0.95;;;5.70;81.40;;;;;;4083469;29;20028;-88
2023/01/11 00:25:29;;;;;;;5.65;1.10;;;5.70;81.50;;;;;;4086591;29;20031;-89
2023/01/11 00:27:36;;;;;;;3.70;0.98;;;5.70;82.20;;;;;;4091133;28;20042;-88
2023/01/11 00:29:43;;;;;;;2.97;0.90;;;5.80;81.70;;;;;;4106152;28;20059;-89
2023/01/11 00:31:45;;;;;;;3.15;1.20;;;5.80;81.70;;;;;;4102870;28;20038;-88
2023/01/11 00:33:52;;;;;;;3.95;1.08;;;5.80;81.70;;;;;;4086120;29;20036;-89
2023/01/11 00:36:01;;;;;;;3.60;1.15;;;5.80;81.80;;;;;;4089455;29;20032;-90
2023/01/11 00:38:42;;;;;;;4.65;1.42;;;5.80;81.80;;;;;;4084872;29;20027;-88
2023/01/11 00:40:35;;;;;;;3.60;1.35;;;5.80;81.80;;;;;;4103689;28;20058;-89
2023/01/11 00:50:03;;;;;;;4.65;1.30;;;5.80;81.80;;;;;;4091160;29;20098;-89
2023/01/11 00:52:07;;;;;;;4.82;1.40;;;5.90;81.90;;;;;;4079873;29;20116;-89
2023/01/11 00:54:09;;;;;;;4.47;1.20;;;6.00;82.10;;;;;;4077225;28;20024;-88
2023/01/11 00:56:14;;;;;;;2.25;1.10;;;5.90;82.10;;;;;;4092976;28;20641;-89
2023/01/11 00:58:22;;;;;;;6.45;0.98;;;5.80;82.10;;;;;;4073124;29;20370;-89
2023/01/11 01:00:26;;;;;;;1.60;0.95;;;6.00;82.30;;;;;;4090954;28;20047;-89
2023/01/11 01:02:27;;;;;;;4.20;1.30;;;5.90;82.30;;;;;;4093522;28;20043;-88
2023/01/11 01:04:34;;;;;;;1.80;1.20;;;5.90;82.30;;;;;;4081699;29;20098;-89
2023/01/11 01:06:35;;;;;;;4.05;0.95;;;6.00;82.40;;;;;;4093706;28;20059;-89
2023/01/11 01:08:41;;;;;;;3.22;0.98;;;6.10;82.50;;;;;;4096720;28;20423;-88
2023/01/11 01:10:43;;;;;;;3.00;1.23;;;6.10;82.50;;;;;;4087532;28;20110;-90
2023/01/11 01:15:05;;;;;;;2.33;1.15;;;6.00;82.60;;;;;;4096000;28;20027;-89
2023/01/11 01:17:08;;;;;;;2.88;0.90;;;6.10;82.50;;;;;;4077215;29;20047;-90
2023/01/11 01:19:09;;;;;;;2.47;0.95;;;6.00;82.60;;;;;;4093151;28;20098;-89
2023/01/11 01:21:13;;;;;;;2.42;1.02;;;6.10;82.70;;;;;;4066519;29;20491;-89
2023/01/11 01:23:19;;;;;;;1.42;0.70;;;6.10;82.60;;;;;;4074572;29;20142;-88
2023/01/11 01:25:26;;;;;;;2.05;1.00;;;6.00;82.50;;;;;;4094621;28;20027;-88
2023/01/11 01:27:30;;;;;;;1.92;0.70;;;6.10;82.70;;;;;;4070133;29;20123;-87
2023/01/11 01:29:46;;;;;;;2.20;1.02;;;6.10;82.80;;;;;;4080574;29;20059;-88
2023/01/11 01:31:56;;;;;;;4.15;1.88;;;6.20;82.70;;;;;;4081709;29;20042;-87
2023/01/11 01:33:57;;;;;;;2.05;1.15;;;6.20;82.80;;;;;;4081508;29;20027;-88
2023/01/11 01:36:01;;;;;;;2.55;1.00;;;6.20;82.80;;;;;;4087183;29;20027;-88
2023/01/11 01:38:02;;;;;;;3.80;1.48;;;6.20;82.80;;;;;;4081755;29;20174;-88
2023/01/11 01:40:07;;;;;;;4.80;1.55;;;6.20;82.90;;;;;;4086968;28;20118;-89
2023/01/11 01:42:22;;;;;;;3.08;1.40;;;6.20;82.90;;;;;;4101956;28;20019;-88
2023/01/11 01:45:02;;;;;;;2.42;1.17;;;6.20;82.80;;;;;;4087945;29;20125;-89
2023/01/11 01:47:04;;;;;;;2.60;1.27;;;6.20;83.00;;;;;;4097999;28;20132;-88
2023/01/11 01:49:11;;;;;;;2.08;1.30;;;6.20;83.00;;;;;;4084393;29;20034;-88
2023/01/11 01:51:20;;;;;;;5.80;1.83;;;6.30;83.10;;;;;;4081030;29;20626;-88
2023/01/11 01:53:36;;;;;;;3.45;1.98;;;6.30;83.30;;;;;;4083587;29;20031;-88
2023/01/11 01:55:45;;;;;;;2.78;1.40;;;6.30;83.50;;;;;;4085268;29;20030;-86
2023/01/11 01:57:56;;;;;;;2.55;1.40;;;6.40;83.50;;;;;;4098266;28;20088;-87
2023/01/11 02:00:07;;;;;;;3.97;1.80;;;6.30;83.50;;;;;;4098970;28;20097;-89
2023/01/11 02:02:10;;;;;;;6.15;1.60;;;6.40;83.70;;;;;;4091360;29;20098;-89
2023/01/11 02:04:31;;;;;;;3.35;1.58;;;6.30;83.60;;;;;;4095182;28;20043;-87
2023/01/11 02:06:45;;;;;;;5.35;1.55;;;6.50;83.70;;;;;;4099054;28;20075;-90
2023/01/11 02:09:03;;;;;;;2.50;1.45;;;6.50;83.60;;;;;;4100043;28;20058;-89
2023/01/11 02:11:28;;;;;;;2.55;1.35;;;6.50;83.70;;;;;;4086189;29;20035;-88
2023/01/11 02:13:27;;;;;;;4.13;1.48;;;6.50;83.90;;;;;;4094385;28;20023;-89
2023/01/11 02:15:35;;;;;;;3.35;1.40;;;6.50;83.90;;;;;;4094909;28;20044;-88
2023/01/11 02:17:41;;;;;;;2.38;1.30;;;6.60;84.00;;;;;;4091542;29;20031;-90
2023/01/11 02:20:13;;;;;;;4.03;1.63;;;6.60;84.00;;;;;;4105123;28;20039;-89
2023/01/11 02:22:35;;;;;;;;;;;6.60;83.90;;;;;;4088758;29;20036;-88
2023/01/11 02:25:24;;;;;;;5.32;1.95;;;6.70;84.20;;;;;;4091105;29;19910;-89
2023/01/11 02:28:13;;;;;;;;;;;;;;;;;;;;;
2023/01/11 02:30:49;;;;;;;3.78;2.20;;;6.70;83.90;;;;;;4085951;29;20031;-89
2023/01/11 02:33:15;;;;;;;5.95;2.40;;;6.70;84.00;;;;;;4088369;29;20028;-89
2023/01/11 02:35:50;;;;;;;3.22;2.08;;;6.70;84.00;;;;;;4085978;29;20032;-88
2023/01/11 02:38:42;;;;;;;4.07;2.45;;;6.70;84.00;;;;;;4101910;28;20034;-90
2023/01/11 02:40:55;;;;;;;3.92;2.38;;;6.80;84.10;;;;;;4051301;29;20314;-88
2023/01/11 02:46:02;;;;;;;4.60;2.88;;;6.80;84.30;;;;;;4094312;28;20035;-90
2023/01/11 02:48:30;;;;;;;2.88;2.03;;;6.80;84.40;;;;;;4095147;28;20070;-89
2023/01/11 02:51:02;;;;;;;4.30;2.47;;;6.80;84.50;;;;;;4085772;29;20032;-90
2023/01/11 02:53:35;;;;;;;12.52;3.20;;;6.90;84.60;;;;;;4092193;28;20031;-90
2023/01/11 02:55:47;;;;;;;2.58;2.10;;;6.90;84.50;;;;;;4073906;29;20127;-89
2023/01/11 02:58:11;;;;;;;2.97;1.80;;;6.90;84.40;;;;;;4089082;28;20036;-91
2023/01/11 03:00:38;;;;;;;3.45;2.08;;;6.90;84.40;;;;;;4096264;28;20039;-90
2023/01/11 03:03:28;;;;;;;2.90;1.83;;;7.00;84.60;;;;;;4106387;28;20031;-91
2023/01/11 03:06:03;;;;;;;3.08;1.88;;;6.90;84.50;;;;;;4103596;28;20035;-90
2023/01/11 03:08:46;;;;;;;3.05;2.30;;;6.90;84.40;;;;;;4103409;28;20031;-90
2023/01/11 03:15:07;;;;;;;2.67;1.92;;;7.10;84.40;;;;;;4087985;28;20050;-90
2023/01/11 03:18:03;;;;;;;2.92;1.50;;;7.10;84.60;;;;;;4100957;28;20063;-89
2023/01/11 03:20:42;;;;;;;5.60;1.80;;;7.10;84.60;;;;;;4082448;29;20034;-89
2023/01/11 03:23:41;;;;;;;3.17;1.90;;;7.10;84.50;;;;;;4098289;28;20098;-90
2023/01/11 03:26:46;;;;;;;4.80;1.80;;;7.10;84.50;;;;;;4062622;29;20052;-91
2023/01/11 03:29:37;;;;;;;1.90;1.55;;;7.20;83.90;;;;;;4024611;29;20037;-91
2023/01/11 03:32:18;;;;;;;1.67;1.52;;;7.20;84.70;;;;;;4022611;29;20040;-90
2023/01/11 03:34:58;;;;;;;2.05;1.15;;;7.20;84.70;;;;;;4025468;29;20086;-88
2023/01/11 03:37:42;;;;;;;4.35;1.63;;;7.30;84.70;;;;;;4051538;29;20127;-88
2023/01/11 03:40:13;;;;;;;1.20;1.00;;;7.30;84.80;;;;;;4100075;28;20035;-89
2023/01/11 03:45:27;;;;;;;2.47;0.98;;;7.30;84.90;;;;;;4102847;28;20543;-88
2023/01/11 03:47:50;;;;;;;0.73;0.63;;;7.30;85.10;;;;;;4111680;28;20020;-89
2023/01/11 03:50:17;;;;;;;1.30;0.88;;;7.40;85.30;;;;;;4108031;28;20031;-89
2023/01/11 03:52:43;;;;;;;1.65;1.02;;;7.30;85.30;;;;;;4110777;28;20051;-88
2023/01/11 03:55:15;;;;;;;3.67;1.50;;;7.50;85.50;;;;;;4109604;28;20027;-88
2023/01/11 03:57:33;;;;;;;2.28;1.23;;;7.40;85.50;;;;;;4076226;29;20041;-88
2023/01/11 03:59:58;;;;;;;1.75;1.30;;;7.60;85.70;;;;;;4096951;28;20039;-88
2023/01/11 04:02:40;;;;;;;1.10;1.00;;;7.70;85.70;;;;;;4102969;28;20035;-88
2023/01/11 04:05:02;;;;;;;2.47;1.25;;;7.70;85.90;;;;;;4106958;28;20028;-89
2023/01/11 04:07:23;;;;;;;2.05;1.40;;;7.70;85.80;;;;;;4110061;28;20055;-88
2023/01/11 04:09:45;;;;;;;2.80;1.33;;;7.70;86.10;;;;;;4106725;28;20020;-88
2023/01/11 04:12:06;;;;;;;5.90;1.55;;;7.70;86.00;;;;;;4097410;28;20035;-90
2023/01/11 04:14:27;;;;;;;2.58;1.33;;;7.80;86.00;;;;;;4093071;28;20055;-88
2023/01/11 04:16:48;;;;;;;1.25;1.15;;;7.80;86.00;;;;;;4094787;28;20062;-89
2023/01/11 04:19:12;;;;;;;1.77;1.20;;;7.90;86.20;;;;;;4090222;28;20106;-88
2023/01/11 04:21:38;;;;;;;;;;;7.90;86.30;;;;;;4100647;28;20055;-88
2023/01/11 04:23:59;;;;;;;1.98;1.50;;;7.80;86.50;;;;;;4085265;28;19919;-88
2023/01/11 04:26:23;;;;;;;2.25;1.27;;;7.90;86.10;;;;;;4094501;28;20035;-89
2023/01/11 04:28:44;;;;;;;;;;;8.00;86.30;;;;;;4097725;28;20051;-89
2023/01/11 04:31:05;;;;;;;1.63;1.30;;;8.00;86.70;;;;;;4097566;28;19910;-90
2023/01/11 04:33:25;;;;;;;1.98;1.40;;;8.10;86.20;;;;;;4098286;28;20114;-90
2023/01/11 04:35:49;;;;;;;2.42;1.90;;;8.10;86.30;;;;;;4097838;28;20127;-90
2023/01/11 04:38:10;;;;;;;3.25;1.67;;;8.10;86.50;;;;;;4088818;28;20019;-90
2023/01/11 04:40:33;;;;;;;1.85;1.60;;;8.20;86.90;;;;;;4098384;28;20113;-90
2023/01/11 04:42:54;;;;;;;1.63;1.33;;;8.30;86.90;;;;;;4096010;28;20042;-89
2023/01/11 04:45:15;;;;;;;2.28;1.65;;;8.30;86.90;;;;;;4114151;28;20742;-87
2023/01/11 04:47:39;;;;;;;2.40;1.30;;;8.30;86.80;;;;;;4108937;28;20036;-89
2023/01/11 04:50:03;;;;;;;3.92;1.67;;;8.30;86.70;;;;;;4117800;28;20031;-89
2023/01/11 04:52:25;;;;;;;5.88;1.77;;;8.40;86.80;;;;;;4115014;28;20035;-90
2023/01/11 04:54:47;;;;;;;6.05;2.17;;;8.40;86.70;;;;;;4101200;28;20039;-91
2023/01/11 04:57:12;;;;;;;1.95;1.70;;;8.50;86.70;;;;;;4097706;28;20077;-92
2023/01/11 04:59:36;;;;;;;3.28;1.90;;;8.60;86.70;;;;;;4095563;28;20054;-90
2023/01/11 05:01:59;;;;;;;;;;;8.50;86.70;;;;;;4088521;28;20047;-92
2023/01/11 05:04:25;;;;;;;3.17;1.90;;;8.60;87.00;;;;;;4096306;28;19938;-86
2023/01/11 05:06:52;;;;;;;2.95;1.70;;;8.60;86.40;;;;;;4069558;28;20075;-84
2023/01/11 05:09:27;;;;;;;3.15;1.55;;;8.60;86.20;;;;;;3961622;28;20044;-85
2023/01/11 05:11:51;;;;;;;1.83;1.20;;;8.70;86.40;;;;;;4107410;28;20070;-85
2023/01/11 05:14:15;;;;;;;2.95;1.40;;;8.80;86.40;;;;;;4111184;28;20165;-86
2023/01/11 05:16:54;;;;;;;1.98;1.00;;;8.70;86.50;;;;;;4111024;28;20041;-85
2023/01/11 05:19:16;;;;;;;2.05;1.20;;;8.80;86.60;;;;;;4109582;28;20035;-86
2023/01/11 05:21:43;;;;;;;1.90;1.10;;;8.80;86.60;;;;;;4112344;28;20023;-85
2023/01/11 05:24:15;;;;;;;1.80;1.00;;;8.80;86.50;;;;;;4096833;28;20115;-86
2023/01/11 05:26:36;;;;;;;5.82;1.45;;;8.80;86.50;;;;;;4104650;28;20038;-90
2023/01/11 05:29:03;;;;;;;2.00;1.40;;;8.90;86.40;;;;;;4097558;28;20067;-90
2023/01/11 05:31:23;;;;;;;3.85;1.33;;;8.90;86.40;;;;;;4113533;28;20069;-91
2023/01/11 05:33:46;;;;;;;9.20;2.00;;;8.80;86.40;;;;;;4098154;28;20039;-91
2023/01/11 05:36:09;;;;;;;4.20;1.80;;;8.90;86.40;;;;;;4110256;28;20041;-90
2023/01/11 05:38:29;;;;;;;7.78;2.30;;;8.90;86.30;;;;;;4111814;28;20038;-91
2023/01/11 05:40:58;;;;;;;4.85;1.60;;;8.90;86.30;;;;;;4099165;28;20038;-89
2023/01/11 05:43:18;;;;;;;6.50;1.80;;;8.90;86.00;;;;;;4111586;28;20163;-90
2023/01/11 05:45:37;;;;;;;11.07;2.17;;;8.90;86.00;;;;;;4115681;28;20229;-91
2023/01/11 05:47:57;;;;;;;7.00;1.85;;;8.80;85.90;;;;;;4112887;28;20065;-89
2023/01/11 05:50:16;;;;;;;11.05;2.58;;;9.00;86.00;;;;;;4111723;28;20038;-91
2023/01/11 05:52:36;;;;;;;8.02;1.58;;;8.90;85.90;;;;;;4107796;28;20105;-89
2023/01/11 05:54:57;;;;;;;8.05;1.98;;;8.90;85.80;;;;;;4121477;28;20070;-90
2023/01/11 05:57:16;;;;;;;8.48;1.90;;;8.90;86.40;;;;;;4120141;28;20046;-90
2023/01/11 05:59:36;;;;;;;16.60;2.50;;;9.00;85.80;;;;;;4122700;28;20062;-90
2023/01/11 06:01:56;;;;;;;17.75;2.40;;;9.00;85.70;;;;;;4113444;28;20045;-90
2023/01/11 06:04:16;;;;;;;13.95;2.28;;;9.00;85.70;;;;;;4114642;28;20099;-91
2023/01/11 06:06:38;;;;;;;10.18;2.17;;;9.10;85.70;;;;;;4111099;28;20878;-91
2023/01/11 06:08:57;;;;;;;12.25;2.28;;;9.00;85.60;;;;;;4109264;28;20521;-91
2023/01/11 06:11:17;;;;;;;15.15;1.95;;;9.00;85.60;;;;;;4100056;28;20097;-89
2023/01/11 06:13:37;;;;;;;13.55;1.70;;;9.10;85.70;;;;;;4103210;28;20042;-90
2023/01/11 06:16:01;;;;;;;17.30;1.77;;;9.00;85.50;;;;;;4107960;28;20138;-90
2023/01/11 06:18:21;;;;;;;13.25;2.38;;;9.10;85.60;;;;;;4103009;28;20065;-91
2023/01/11 06:20:42;;;;;;;16.88;1.98;;;9.10;85.50;;;;;;4111773;28;20057;-90
2023/01/11 06:23:02;;;;;;;19.50;2.00;;;9.00;85.40;;;;;;4099166;28;20034;-90
2023/01/11 06:25:22;;;;;;;13.68;2.45;;;9.10;85.40;;;;;;4113044;28;20195;-90
2023/01/11 06:27:42;;;;;;;12.05;1.95;;;9.00;85.30;;;;;;4123233;28;20047;-88
2023/01/11 06:30:02;;;;;;;13.10;2.13;;;9.00;85.20;;;;;;4109339;28;20097;-90
2023/01/11 06:32:22;;;;;;;17.23;2.22;;;9.00;85.20;;;;;;4115329;28;20053;-90
2023/01/11 06:34:41;;;;;;;17.13;2.15;;;9.10;85.20;;;;;;4112803;28;20069;-90
2023/01/11 06:37:00;;;;;;;16.55;2.30;;;9.00;85.10;;;;;;4113782;28;20065;-92
2023/01/11 06:39:25;;;;;;;13.10;2.15;;;9.00;85.10;;;;;;4111441;28;20104;-90
2023/01/11 06:41:45;;;;;;;15.80;2.00;;;9.00;84.90;;;;;;4111621;28;20065;-91
2023/01/11 06:44:05;;;;;;;21.38;2.47;;;9.10;85.00;;;;;;4124191;28;20148;-90
2023/01/11 06:46:24;;;;;;;20.67;2.45;;;9.00;84.80;;;;;;4123900;28;20037;-89
2023/01/11 06:48:45;;;;;;;22.45;2.75;;;9.10;84.80;;;;;;4124505;28;20042;-90
2023/01/11 06:51:04;;;;;;;21.67;2.83;;;9.00;84.80;;;;;;4118148;28;20057;-90
2023/01/11 06:53:26;;;;;;;28.15;3.03;;;9.00;84.80;;;;;;4122202;28;20033;-89
2023/01/11 06:55:52;;;;;;;20.60;2.65;;;8.90;84.60;;;;;;4124625;28;20124;-89
2023/01/11 06:58:11;;;;;;;32.17;3.25;;;9.00;84.60;;;;;;4126076;28;20060;-89
2023/01/11 07:00:32;;;;;;;23.35;2.70;;;9.00;84.70;;;;;;4114009;28;20050;-91
2023/01/11 07:02:51;;;;;;;20.73;3.08;;;9.00;84.50;;;;;;4098920;28;20042;-90
2023/01/11 07:05:11;;;;;;;22.13;3.40;;;9.10;84.60;;;;;;4109283;28;20121;-90
2023/01/11 07:07:30;;;;;;;24.00;3.42;;;9.10;84.60;;;;;;4129321;28;20061;-89
2023/01/11 07:09:52;;;;;;;22.67;2.65;;;9.00;84.50;;;;;;4125732;28;20037;-88
2023/01/11 07:12:11;;;;;;;20.23;3.13;;;9.00;84.30;;;;;;4125699;28;20026;-88
2023/01/11 07:14:31;;;;;;;24.92;4.07;;;9.00;84.30;;;;;;4126628;28;20046;-89
2023/01/11 07:16:51;;;;;;;24.40;2.75;;;9.00;84.30;;;;;;4120424;28;20510;-89
2023/01/11 07:19:10;;;;;;;24.10;3.42;;;9.10;84.40;;;;;;4091632;28;20062;-90
2023/01/11 07:21:29;;;;;;;30.83;3.22;;;9.10;84.30;;;;;;4091138;28;20847;-91
2023/01/11 07:23:50;;;;;;;24.95;3.15;;;9.00;84.10;;;;;;4097497;28;20050;-90
2023/01/11 07:26:10;;;;;;;28.73;3.53;;;9.00;84.10;;;;;;4104630;28;20051;-92
2023/01/11 07:28:30;;;;;;;25.48;3.22;;;9.00;84.10;;;;;;4098109;28;20514;-91
2023/01/11 07:30:49;;;;;;;23.13;3.88;;;8.90;84.00;;;;;;4110560;28;20044;-91
2023/01/11 07:33:10;;;;;;;22.58;3.22;;;9.00;83.90;;;;;;4108712;28;20034;-93
2023/01/11 07:35:29;;;;;;;18.65;2.92;;;8.90;83.80;;;;;;4103986;28;20562;-91
2023/01/11 07:37:51;;;;;;;26.95;3.30;;;8.90;83.70;;;;;;4094065;28;20038;-90
2023/01/11 07:40:12;;;;;;;28.80;3.35;;;8.90;83.70;;;;;;4103454;28;20053;-92
2023/01/11 07:45:10;;;;;;;24.60;3.10;;;8.80;83.50;;;;;;4106040;28;20109;-90
2023/01/11 07:47:30;;;;;;;29.15;4.07;;;8.80;83.40;;;;;;4101489;28;20038;-91
2023/01/11 07:49:49;;;;;;;30.20;4.13;;;8.80;83.40;;;;;;4089108;28;20538;-92
2023/01/11 07:52:09;;;;;;;28.27;3.85;;;8.70;83.30;;;;;;4106713;28;20104;-91
2023/01/11 07:54:28;;;;;;;24.20;3.78;;;8.80;83.40;;;;;;4097059;28;20087;-90
2023/01/11 07:56:48;;;;;;;26.83;3.47;;;8.70;83.30;;;;;;4109268;28;20033;-91
2023/01/11 07:59:08;;;;;;;27.00;3.47;;;8.80;83.40;;;;;;4098093;28;20154;-91
2023/01/11 08:01:27;;;;;;;24.23;3.50;;;8.80;83.30;;;;;;4113865;28;20031;-89
2023/01/11 08:03:47;;;;;;;27.70;3.67;;;8.70;83.20;;;;;;4115228;28;20049;-90
2023/01/11 08:06:06;;;;;;;27.58;3.55;;;8.70;83.20;;;;;;4118366;28;20119;-91
2023/01/11 08:08:26;;;;;;;30.63;3.53;;;8.60;83.10;;;;;;4112310;28;20070;-91
2023/01/11 08:10:46;;;;;;;26.85;3.80;;;8.70;83.10;;;;;;4116444;28;20242;-92
2023/01/11 08:15:43;;;;;;;28.73;3.67;;;8.70;83.20;;;;;;4121958;28;20033;-91
2023/01/11 08:18:04;;;;;;;22.55;3.28;;;8.60;83.10;;;;;;4108818;28;20062;-92
2023/01/11 08:20:25;;;;;;;28.48;3.13;;;8.60;84.00;;;;;;4108344;28;20426;-91
2023/01/11 08:22:44;;;;;;;16.05;2.78;;;8.50;83.20;;;;;;4091615;28;20149;-90
2023/01/11 08:25:04;;;;;;;25.35;2.88;;;8.60;83.20;;;;;;4107273;28;20054;-90
2023/01/11 08:27:23;;;;;;;26.58;3.63;;;8.50;83.20;;;;;;4103965;28;20051;-91
2023/01/11 08:29:45;;;;;;;22.83;3.25;;;8.50;83.20;;;;;;4106701;28;20094;-91
2023/01/11 08:32:05;;;;;;;32.15;4.10;;;8.50;83.20;;;;;;4107214;28;20038;-90
2023/01/11 08:34:26;;;;;;;19.33;2.90;;;8.50;83.20;;;;;;4114588;28;20042;-90
2023/01/11 08:36:45;;;;;;;29.33;3.83;;;8.50;83.20;;;;;;4094713;28;20050;-90
2023/01/11 08:39:05;;;;;;;23.35;3.58;;;8.50;83.20;;;;;;4107975;28;20110;-92
2023/01/11 08:41:24;;;;;;;23.98;3.28;;;8.60;83.20;;;;;;4096616;28;20048;-90
2023/01/11 08:43:44;;;;;;;30.88;3.72;;;8.50;83.00;;;;;;4097573;28;20038;-92
2023/01/11 08:46:03;;;;;;;28.10;4.05;;;8.40;83.00;;;;;;4108125;28;20060;-92
2023/01/11 08:48:25;;;;;;;32.92;3.70;;;8.40;82.90;;;;;;4109232;28;20037;-91
2023/01/11 08:50:45;;;;;;;32.20;3.50;;;8.40;82.90;;;;;;4107117;28;20086;-91
2023/01/11 08:53:04;;;;;;;27.80;4.20;;;8.40;82.80;;;;;;4106771;28;20045;-92
2023/01/11 08:55:24;;;;;;;29.38;3.70;;;8.40;82.80;;;;;;4105981;28;20593;-91
2023/01/11 08:57:44;;;;;;;37.72;4.65;;;8.40;82.80;;;;;;4111315;28;20074;-92
2023/01/11 09:00:06;;;;;;;27.58;3.58;;;8.40;82.70;;;;;;4105837;28;20112;-90
2023/01/11 09:02:25;;;;;;;27.48;3.25;;;8.40;82.70;;;;;;4095448;28;20155;-90
2023/01/11 09:04:44;;;;;;;30.58;3.63;;;8.40;82.70;;;;;;4110469;28;20057;-92
2023/01/11 09:07:06;;;;;;;42.58;4.72;;;8.40;82.70;;;;;;4088829;28;20118;-91
2023/01/11 09:09:26;;;;;;;31.33;3.50;;;8.30;82.60;;;;;;4106078;28;20042;-91
2023/01/11 09:11:55;;;;;;;28.33;4.00;;;8.30;82.50;;;;;;4116116;28;20045;-90
2023/01/11 09:14:15;;;;;;;39.58;4.72;;;8.40;82.70;;;;;;4101376;28;20085;-92
2023/01/11 09:16:34;;;;;;;25.48;4.45;;;8.30;82.50;;;;;;4113759;28;20073;-90
2023/01/11 09:18:54;;;;;;;31.83;4.18;;;8.30;82.60;;;;;;4098562;28;20691;-92
2023/01/11 09:21:13;;;;;;;26.40;3.72;;;8.20;82.40;;;;;;4110408;28;20038;-92
2023/01/11 09:23:33;;;;;;;28.40;3.45;;;8.30;82.60;;;;;;4093607;28;20430;-93
2023/01/11 09:25:54;;;;;;;29.13;3.70;;;8.30;82.50;;;;;;4116361;28;20053;-90
2023/01/11 09:28:14;;;;;;;24.17;4.00;;;8.30;82.50;;;;;;4116102;28;20281;-90
2023/01/11 09:30:33;;;;;;;29.58;3.72;;;8.20;82.50;;;;;;4106428;28;20062;-91
2023/01/11 09:32:56;;;;;;;23.27;3.60;;;8.20;82.50;;;;;;4111037;28;20348;-91
2023/01/11 09:35:16;;;;;;;29.35;3.67;;;8.20;82.50;;;;;;4114074;28;20065;-91
2023/01/11 09:37:40;;;;;;;22.50;2.60;;;8.10;82.40;;;;;;4097365;28;20158;-92
2023/01/11 09:40:00;;;;;;;28.48;3.40;;;8.20;83.20;;;;;;4096193;28;20042;-89
2023/01/11 09:42:35;;;;;;;29.98;3.45;;;8.20;82.40;;;;;;4114885;28;20046;-92
2023/01/11 09:45:19;;;;;;;26.73;2.92;;;8.10;82.30;;;;;;4112220;28;20058;-91
2023/01/11 09:47:40;;;;;;;33.00;3.97;;;8.10;82.30;;;;;;4111853;28;20066;-90
2023/01/11 09:50:05;;;;;;;26.67;3.78;;;8.20;82.30;;;;;;4112249;28;20035;-91
2023/01/11 09:52:35;;;;;;;27.83;3.90;;;8.10;82.20;;;;;;4107268;28;20045;-91
2023/01/11 09:54:57;;;;;;;32.58;6.10;;;8.20;82.20;;;;;;4109410;28;20033;-90
2023/01/11 09:57:35;;;;;;;39.78;5.40;;;8.20;82.10;;;;;;4103958;28;20054;-91
2023/01/11 10:00:11;;;;;;;33.83;5.13;;;8.10;82.10;;;;;;4107446;28;20411;-91
2023/01/11 10:03:09;;;;;;;33.13;4.05;;;8.10;82.00;;;;;;4110909;28;20166;-89
2023/01/11 10:05:48;;;;;;;38.95;4.68;;;8.10;82.00;;;;;;4094034;28;20035;-91
2023/01/11 10:08:29;;;;;;;28.20;3.90;;;8.10;82.00;;;;;;4111328;28;20038;-90
2023/01/11 10:11:26;;;;;;;22.80;3.58;;;8.10;82.10;;;;;;4108477;28;20030;-91
2023/01/11 10:13:52;;;;;;;33.50;4.32;;;8.10;82.00;;;;;;4094996;28;20169;-91
2023/01/11 10:16:46;;;;;;;29.02;3.67;;;8.10;82.10;;;;;;4107054;28;20102;-90
2023/01/11 10:19:13;;;;;;;42.30;4.60;;;8.10;82.10;;;;;;4130905;28;20046;-89
2023/01/11 10:21:59;;;;;;;25.73;3.92;;;8.10;82.10;;;;;;4120842;28;20046;-89
2023/01/11 10:24:28;;;;;;;28.65;5.05;;;8.00;82.00;;;;;;4109711;28;20038;-90
2023/01/11 10:26:51;;;;;;;24.45;4.28;;;8.10;82.00;;;;;;4107313;28;20146;-89
2023/01/11 10:32:08;;;;;;;23.20;3.45;;;8.00;81.80;;;;;;4111991;28;20272;-90
2023/01/11 10:40:38;;;;;;;27.95;4.20;;;8.00;81.80;;;;;;4109185;28;20101;-89
2023/01/11 10:43:19;;;;;;;23.90;3.47;;;8.00;81.90;;;;;;4102459;28;20165;-90
2023/01/11 10:45:46;;;;;;;29.55;4.70;;;8.00;81.90;;;;;;4117372;28;20078;-89
2023/01/11 10:48:26;;;;;;;30.73;3.70;;;8.10;82.10;;;;;;4115177;28;20126;-90
2023/01/11 10:50:58;;;;;;;25.27;3.50;;;8.00;82.00;;;;;;4098254;28;20051;-89
2023/01/11 10:53:27;;;;;;;29.40;3.83;;;8.10;82.00;;;;;;4107114;28;20037;-89
2023/01/11 10:56:15;;;;;;;25.15;3.25;;;8.00;81.90;;;;;;4111125;28;20045;-89
2023/01/11 10:58:49;;;;;;;21.50;3.38;;;8.00;81.90;;;;;;4109413;28;20053;-90
2023/01/11 11:01:38;;;;;;;21.45;3.97;;;8.00;81.80;;;;;;4113027;28;20109;-89
2023/01/11 11:04:00;;;;;;;19.83;2.83;;;8.00;81.70;;;;;;4111097;28;20065;-90
2023/01/11 11:06:26;;;;;;;19.60;2.33;;;8.00;81.80;;;;;;4114898;28;20069;-90
2023/01/11 11:08:45;;;;;;;19.73;3.78;;;8.00;81.80;;;;;;4097292;28;20115;-90
2023/01/11 11:11:19;;;;;;;26.13;3.13;;;8.00;81.80;;;;;;4111079;28;20042;-90
2023/01/11 11:13:52;;;;;;;16.75;3.13;;;8.10;81.80;;;;;;4109353;28;20065;-89
2023/01/11 11:16:36;;;;;;;28.15;3.00;;;8.00;81.60;;;;;;4112002;28;20049;-89
2023/01/11 11:18:58;;;;;;;25.13;3.63;;;8.00;81.30;;;;;;4106445;28;20051;-90
2023/01/11 11:21:29;;;;;;;29.98;3.60;;;7.90;81.40;;;;;;4103620;28;20070;-90
2023/01/11 11:24:07;;;;;;;27.65;3.35;;;8.00;81.40;;;;;;4108370;28;20045;-90
2023/01/11 11:26:37;;;;;;;26.85;3.38;;;8.00;81.30;;;;;;4105134;28;20271;-90
2023/01/11 11:29:21;;;;;;;29.63;3.10;;;8.00;81.30;;;;;;4097554;28;20035;-90
2023/01/11 11:31:45;;;;;;;25.98;3.55;;;7.90;81.20;;;;;;4107323;28;20050;-89
2023/01/11 11:34:07;;;;;;;25.17;3.75;;;7.90;81.20;;;;;;4107029;28;20403;-90
2023/01/11 11:36:30;;;;;;;19.88;3.50;;;8.00;81.20;;;;;;4109108;28;20045;-89
2023/01/11 11:39:14;;;;;;;23.42;5.25;;;7.90;81.30;;;;;;4104724;28;20030;-90
2023/01/11 11:41:48;;;;;;;;;;;7.90;81.20;;;;;;4112500;28;20063;-88
2023/01/11 11:44:16;;;;;;;27.23;5.57;;;7.90;81.70;;;;;;4111220;28;19921;-89
2023/01/11 11:46:35;;;;;;;24.63;3.95;;;8.00;81.40;;;;;;4107544;28;20411;-90
2023/01/11 11:49:17;;;;;;;22.67;3.83;;;7.90;82.20;;;;;;4107427;28;21035;-89
2023/01/11 11:51:38;;;;;;;34.65;3.65;;;7.90;81.30;;;;;;4107804;28;20058;-89
2023/01/11 11:53:57;;;;;;;27.83;2.92;;;7.90;81.50;;;;;;4108542;28;20045;-90
2023/01/11 11:56:30;;;;;;;21.08;2.72;;;8.00;81.60;;;;;;4107798;28;20541;-88
2023/01/11 11:58:51;;;;;;;21.63;3.27;;;7.90;81.50;;;;;;4110318;28;20046;-90
2023/01/11 12:01:29;;;;;;;27.33;3.22;;;8.10;81.70;;;;;;4109628;28;20268;-89
2023/01/11 12:03:50;;;;;;;20.33;2.85;;;8.00;81.70;;;;;;4108746;28;20045;-88
2023/01/11 12:06:10;;;;;;;24.10;3.53;;;8.00;81.80;;;;;;4108597;28;20050;-88
2023/01/11 12:08:33;;;;;;;24.60;3.30;;;8.10;82.10;;;;;;4107730;28;20537;-89
2023/01/11 12:11:05;;;;;;;20.15;3.00;;;8.10;82.10;;;;;;4107185;28;20545;-88
2023/01/11 12:13:33;;;;;;;18.60;3.13;;;8.10;82.20;;;;;;4105974;28;20537;-90
2023/01/11 12:15:58;;;;;;;30.65;3.28;;;8.20;82.10;;;;;;4108518;28;20424;-90
2023/01/11 12:18:37;;;;;;;27.45;4.20;;;8.20;82.10;;;;;;4103888;28;20070;-89
2023/01/11 12:21:07;;;;;;;23.17;3.05;;;8.30;82.10;;;;;;4109030;28;20034;-90
2023/01/11 12:23:28;;;;;;;31.52;3.20;;;8.30;82.10;;;;;;4108498;28;20088;-89
2023/01/11 12:26:26;;;;;;;28.08;3.60;;;8.40;82.10;;;;;;4106925;28;20418;-90
2023/01/11 12:29:10;;;;;;;27.60;2.60;;;8.40;82.10;;;;;;4064255;29;20047;-88
2023/01/11 12:31:59;;;;;;;23.50;2.75;;;8.40;81.90;;;;;;4117610;28;20549;-90
2023/01/11 12:34:34;;;;;;;29.45;4.07;;;8.40;81.70;;;;;;4107617;28;20521;-90
2023/01/11 12:37:07;;;;;;;22.85;3.03;;;8.50;81.70;;;;;;4102814;28;20054;-90
2023/01/11 12:40:15;;;;;;;34.92;4.10;;;8.50;81.60;;;;;;4100836;28;20043;-89
2023/01/11 12:42:56;;;;;;;25.02;2.95;;;8.50;80.80;;;;;;4105786;28;20506;-89
2023/01/11 12:45:21;;;;;;;21.38;2.92;;;8.50;81.00;;;;;;4105362;28;20362;-90
2023/01/11 12:47:58;;;;;;;33.50;3.63;;;8.60;80.90;;;;;;4106476;28;20042;-89
2023/01/11 12:50:29;;;;;;;24.80;3.53;;;8.60;80.70;;;;;;4107951;28;20065;-89
2023/01/11 12:53:05;;;;;;;21.92;3.35;;;8.60;80.30;;;;;;4110976;28;20061;-90
2023/01/11 12:55:46;;;;;;;24.63;3.00;;;8.60;80.00;;;;;;4110444;28;20094;-90
2023/01/11 12:58:24;;;;;;;26.77;2.70;;;8.60;79.80;;;;;;4109093;28;20077;-90
2023/01/11 13:01:02;;;;;;;23.05;3.38;;;8.60;79.60;;;;;;4111863;28;20418;-90
2023/01/11 13:03:52;;;;;;;29.27;4.90;;;8.60;79.50;;;;;;4110510;28;20100;-90